Time;durP1;ratioP1;P1;durP2;ratioP2;P2;SDS_P1;SDS_P2;PMS_P1;PMS_P2;Temp;Humidity;BMP_temperature;BMP_pressure;BME280_temperature;BME280_humidity;BME280_pressure;Samples;Min_cycle;Max_cycle;Signal;HPM_P1;HPM_P2
2023/06/05 00:01:54;;;;;;;2.87;2.60;;;;;;;17.52;44.97;155863.59;4937917;29;20476;-80
2023/06/05 00:04:23;;;;;;;3.23;2.67;;;;;;;17.51;45.02;155862.28;4944591;28;20544;-80
2023/06/05 00:06:50;;;;;;;7.67;3.07;;;;;;;17.46;45.06;155849.25;4949155;28;20547;-79
2023/06/05 00:09:17;;;;;;;3.90;2.60;;;;;;;17.41;44.86;155836.25;4938321;29;20451;-80
2023/06/05 00:11:45;;;;;;;3.57;2.63;;;;;;;17.37;45.06;155824.50;4931381;29;20461;-80
2023/06/05 00:14:11;;;;;;;2.97;2.67;;;;;;;17.33;45.44;155814.13;4947166;28;20494;-80
2023/06/05 00:16:38;;;;;;;3.53;2.60;;;;;;;17.30;45.61;155807.63;4930349;29;20468;-79
2023/06/05 00:19:04;;;;;;;10.70;2.90;;;;;;;17.26;45.89;155797.16;4931137;29;20448;-80
2023/06/05 00:21:31;;;;;;;3.30;2.53;;;;;;;17.23;45.76;155789.41;4932940;29;20535;-80
2023/06/05 00:23:58;;;;;;;3.33;2.50;;;;;;;17.26;45.89;155797.16;4937385;29;20548;-80
2023/06/05 00:26:24;;;;;;;4.00;2.50;;;;;;;17.25;45.88;155793.28;4933123;29;20488;-80
2023/06/05 00:28:53;;;;;;;3.53;2.87;;;;;;;17.16;46.13;155769.84;4924217;29;20471;-80
2023/06/05 00:31:21;;;;;;;3.23;2.40;;;;;;;17.13;46.04;155762.06;4935797;29;20842;-80
2023/06/05 00:33:48;;;;;;;2.80;2.57;;;;;;;17.11;46.02;155756.84;4942553;28;20464;-80
2023/06/05 00:36:14;;;;;;;3.37;2.90;;;;;;;17.07;46.42;155746.44;4946911;29;20433;-80
2023/06/05 00:38:41;;;;;;;2.40;2.20;;;;;;;17.03;46.31;155737.31;4931631;29;20452;-80
2023/06/05 00:41:07;;;;;;;3.17;2.87;;;;;;;17.00;46.59;155730.81;4930053;29;20991;-80
2023/06/05 00:43:34;;;;;;;3.40;2.93;;;;;;;16.95;46.91;155716.50;4941285;28;20489;-80
2023/06/05 00:46:04;;;;;;;2.83;2.50;;;;;;;16.88;47.24;155699.63;4942243;28;20786;-80
2023/06/05 00:48:32;;;;;;;3.43;2.70;;;;;;;16.84;47.62;155687.88;4933095;29;20459;-80
2023/06/05 00:50:59;;;;;;;3.20;2.70;;;;;;;16.84;47.46;155689.19;4914873;29;20544;-80
2023/06/05 00:53:27;;;;;;;3.27;2.97;;;;;;;16.81;47.56;155681.38;4945637;28;20458;-81
2023/06/05 00:55:53;;;;;;;4.23;2.80;;;;;;;16.76;47.72;155667.09;4944911;29;20484;-80
2023/06/05 00:58:20;;;;;;;3.47;2.80;;;;;;;16.70;47.83;155651.47;4945568;28;20468;-80
2023/06/05 01:00:49;;;;;;;3.90;3.07;;;;;;;16.67;47.74;155644.97;4932574;29;22070;-80
2023/06/05 01:03:17;;;;;;;4.50;2.60;;;;;;;16.64;48.01;155637.16;4913875;29;20457;-80
2023/06/05 01:05:47;;;;;;;3.30;2.80;;;;;;;16.57;48.14;155618.97;4931280;29;20448;-80
2023/06/05 01:08:16;;;;;;;4.30;3.47;;;;;;;16.52;48.38;155605.88;4944457;28;20470;-81
2023/06/05 01:10:43;;;;;;;4.40;2.80;;;;;;;16.51;48.32;155601.97;4912288;29;20811;-80
2023/06/05 01:13:16;;;;;;;4.00;2.70;;;;;;;16.49;48.57;155598.09;4929358;29;20456;-80
2023/06/05 01:15:44;;;;;;;3.70;3.20;;;;;;;16.43;48.69;155582.47;4929450;29;20451;-80
2023/06/05 01:18:11;;;;;;;3.87;2.53;;;;;;;16.38;49.14;155570.78;4944836;28;20899;-80
2023/06/05 01:20:41;;;;;;;4.10;2.80;;;;;;;16.39;49.21;155572.06;4927796;29;20484;-80
2023/06/05 01:23:10;;;;;;;4.87;3.03;;;;;;;16.45;49.39;155587.66;4929608;29;20462;-80
2023/06/05 01:25:40;;;;;;;3.73;3.03;;;;;;;16.45;48.68;155588.97;4946361;29;20874;-80
2023/06/05 01:28:09;;;;;;;4.33;2.50;;;;;;;16.43;48.63;155583.78;4930218;29;20862;-80
2023/06/05 01:30:44;;;;;;;3.40;2.53;;;;;;;16.43;48.36;155582.47;4928764;29;20456;-80
2023/06/05 01:33:13;;;;;;;3.63;2.97;;;;;;;16.41;48.69;155577.28;4919611;29;20960;-80
2023/06/05 01:35:41;;;;;;;3.43;2.67;;;;;;;16.36;48.57;155564.28;4938854;29;21023;-81
2023/06/05 01:38:11;;;;;;;2.93;2.67;;;;;;;16.24;49.17;155533.06;4927388;29;21899;-81
2023/06/05 01:40:38;;;;;;;3.77;3.20;;;;;;;16.19;48.94;155520.03;4921853;29;20553;-80
2023/06/05 01:43:06;;;;;;;4.40;3.20;;;;;;;16.24;50.37;155533.06;4917031;29;20463;-80
2023/06/05 01:45:33;;;;;;;3.30;2.90;;;;;;;16.25;49.69;155535.66;4929383;29;20467;-80
2023/06/05 01:47:59;;;;;;;4.83;3.67;;;;;;;16.20;49.86;155522.66;4926658;29;20872;-80
2023/06/05 01:50:26;;;;;;;3.40;3.10;;;;;;;16.27;49.34;155540.84;4932480;29;20515;-80
2023/06/05 01:52:54;;;;;;;4.53;2.90;;;;;;;16.29;49.29;155547.34;4930785;29;20468;-80
2023/06/05 01:55:23;;;;;;;3.60;3.10;;;;;;;16.34;49.61;155560.34;4928076;29;20456;-80
2023/06/05 01:57:51;;;;;;;4.00;3.30;;;;;;;16.34;49.06;155559.06;4917129;29;20843;-80
2023/06/05 02:00:18;;;;;;;3.70;3.03;;;;;;;16.23;49.25;155530.47;4903585;29;20539;-80
2023/06/05 02:02:47;;;;;;;3.23;2.93;;;;;;;16.28;49.29;155543.47;4916381;29;21026;-80
2023/06/05 02:05:14;;;;;;;3.30;2.97;;;;;;;16.31;49.40;155551.25;4927724;29;20486;-81
2023/06/05 02:07:42;;;;;;;3.73;3.13;;;;;;;16.31;49.45;155551.25;4912813;29;20487;-80
2023/06/05 02:10:10;;;;;;;8.20;3.40;;;;;;;16.33;49.22;155557.78;4921639;29;20558;-80
2023/06/05 02:12:38;;;;;;;3.63;3.30;;;;;;;16.32;49.32;155553.84;4924538;29;20463;-80
2023/06/05 02:15:05;;;;;;;3.27;2.97;;;;;;;16.28;49.09;155544.75;4928119;29;20885;-80
2023/06/05 02:17:34;;;;;;;3.80;3.43;;;;;;;16.23;49.24;155531.75;4937527;29;20459;-80
2023/06/05 02:20:00;;;;;;;3.30;2.90;;;;;;;16.30;49.46;155548.66;4941517;29;20466;-80
2023/06/05 02:22:27;;;;;;;3.53;2.97;;;;;;;16.21;49.42;155525.25;4927243;29;20494;-80
2023/06/05 02:24:54;;;;;;;7.87;3.10;;;;;;;16.12;49.32;155501.88;4921922;29;20470;-80
2023/06/05 02:27:24;;;;;;;3.83;3.33;;;;;;;16.00;49.97;155471.94;4927944;29;20940;-80
2023/06/05 02:29:52;;;;;;;4.40;3.33;;;;;;;15.98;49.85;155465.44;4920582;29;20461;-79
2023/06/05 02:32:19;;;;;;;3.20;2.90;;;;;;;15.89;49.78;155443.31;4936328;29;20912;-80
2023/06/05 02:34:47;;;;;;;3.10;2.80;;;;;;;15.84;49.83;155431.63;4938161;29;20557;-80
2023/06/05 02:37:14;;;;;;;6.60;3.40;;;;;;;15.81;50.31;155423.81;4916772;29;20474;-80
2023/06/05 02:39:40;;;;;;;3.37;2.97;;;;;;;15.83;50.11;155429.03;4934389;29;20447;-79
2023/06/05 02:42:08;;;;;;;3.30;2.80;;;;;;;15.84;50.66;155430.31;4939939;29;20541;-80
2023/06/05 02:44:35;;;;;;;3.50;3.20;;;;;;;15.86;50.75;155434.25;4952213;29;20476;-79
2023/06/05 02:47:03;;;;;;;6.53;4.57;;;;;;;15.83;51.01;155429.03;4947156;29;20546;-80
2023/06/05 02:49:30;;;;;;;6.00;4.30;;;;;;;15.85;51.07;155432.94;4901842;29;20456;-80
2023/06/05 02:51:57;;;;;;;4.03;3.07;;;;;;;15.79;50.49;155418.63;4929964;29;20447;-79
2023/06/05 02:54:25;;;;;;;3.57;3.27;;;;;;;15.70;51.02;155393.97;4917427;29;20459;-79
2023/06/05 02:56:51;;;;;;;3.80;3.40;;;;;;;15.67;51.31;155386.16;4943655;29;20975;-80
2023/06/05 02:59:18;;;;;;;3.60;3.20;;;;;;;15.64;51.29;155379.66;4921380;29;20474;-79
2023/06/05 03:01:47;;;;;;;3.13;2.80;;;;;;;15.61;51.18;155370.53;4935310;29;20496;-80
2023/06/05 03:04:20;;;;;;;4.13;3.50;;;;;;;15.51;51.25;155345.88;4907954;29;20875;-79
2023/06/05 03:06:48;;;;;;;5.30;3.03;;;;;;;15.44;51.30;155327.59;4923496;29;20898;-80
2023/06/05 03:09:15;;;;;;;5.50;3.57;;;;;;;15.44;51.67;155327.59;4935851;29;20461;-80
2023/06/05 03:11:42;;;;;;;4.83;3.50;;;;;;;15.50;52.20;155343.25;4943256;29;20474;-79
2023/06/05 03:14:09;;;;;;;4.00;3.40;;;;;;;15.49;52.42;155339.38;4917189;29;20464;-80
2023/06/05 03:16:41;;;;;;;4.10;3.53;;;;;;;15.51;52.27;155344.56;4929461;29;21163;-79
2023/06/05 03:19:08;;;;;;;3.17;2.83;;;;;;;15.53;52.33;155351.06;4946014;29;20579;-79
2023/06/05 03:21:37;;;;;;;3.80;3.40;;;;;;;15.54;52.02;155353.63;4934773;29;20584;-80
2023/06/05 03:24:05;;;;;;;4.13;3.67;;;;;;;15.56;52.10;155357.56;4948058;29;20462;-80
2023/06/05 03:26:32;;;;;;;4.43;3.70;;;;;;;15.50;52.52;155343.25;4916328;29;20482;-80
2023/06/05 03:28:58;;;;;;;3.50;3.20;;;;;;;15.49;52.66;155340.63;4932943;29;20499;-80
2023/06/05 03:31:26;;;;;;;3.93;3.17;;;;;;;15.45;53.04;155330.19;4932213;29;20741;-79
2023/06/05 03:33:53;;;;;;;4.10;3.80;;;;;;;15.39;52.59;155314.59;4931216;29;20458;-80
2023/06/05 03:36:20;;;;;;;3.70;3.30;;;;;;;15.35;53.06;155304.22;4927971;29;21060;-80
2023/06/05 03:38:51;;;;;;;4.37;3.70;;;;;;;15.35;52.84;155302.91;4931297;29;20451;-80
2023/06/05 03:41:18;;;;;;;3.13;2.60;;;;;;;15.31;53.62;155293.78;4941397;29;20534;-79
2023/06/05 03:43:46;;;;;;;3.90;3.27;;;;;;;15.26;54.21;155280.81;4929604;29;20577;-80
2023/06/05 03:46:18;;;;;;;3.33;2.93;;;;;;;15.21;53.90;155269.13;4943477;28;20553;-80
2023/06/05 03:48:45;;;;;;;3.47;3.00;;;;;;;15.14;54.79;155250.91;4931298;29;20527;-79
2023/06/05 03:51:13;;;;;;;4.17;3.57;;;;;;;15.15;54.90;155252.22;4928829;29;20518;-79
2023/06/05 03:53:43;;;;;;;3.40;3.00;;;;;;;15.15;55.03;155252.22;4943386;28;20529;-80
2023/06/05 03:56:12;;;;;;;3.80;3.00;;;;;;;15.24;54.98;155276.94;4946253;29;20457;-80
2023/06/05 03:58:39;;;;;;;5.37;2.90;;;;;;;15.33;54.33;155297.72;4932065;29;20818;-79
2023/06/05 04:01:06;;;;;;;3.47;2.93;;;;;;;15.29;54.77;155287.31;4931178;29;20997;-80
2023/06/05 04:03:37;;;;;;;4.07;3.20;;;;;;;15.27;54.01;155284.69;4940593;28;20468;-80
2023/06/05 04:06:04;;;;;;;3.30;3.00;;;;;;;15.24;54.98;155275.63;4933037;29;20438;-80
2023/06/05 04:08:31;;;;;;;4.93;3.00;;;;;;;15.19;55.14;155262.63;4932951;29;20465;-79
2023/06/05 04:10:58;;;;;;;3.83;3.10;;;;;;;15.20;55.58;155265.19;4927390;29;20517;-80
2023/06/05 04:13:26;;;;;;;3.70;3.27;;;;;;;15.39;56.65;155314.59;4945947;28;20467;-79
2023/06/05 04:15:53;;;;;;;5.80;3.10;;;;;;;15.59;55.91;155366.66;4931372;29;20454;-80
2023/06/05 04:18:22;;;;;;;3.90;3.03;;;;;;;15.74;54.84;155405.66;4928795;29;20591;-79
2023/06/05 04:20:50;;;;;;;4.30;3.23;;;;;;;15.86;55.02;155435.50;4941720;28;20467;-79
2023/06/05 04:23:17;;;;;;;3.97;3.47;;;;;;;15.95;54.63;155458.94;4931731;28;20499;-79
2023/06/05 04:25:48;;;;;;;3.50;3.20;;;;;;;16.09;54.30;155494.06;4933160;29;20461;-79
2023/06/05 04:28:16;;;;;;;4.63;3.43;;;;;;;16.20;53.61;155522.66;4942473;28;20467;-81
2023/06/05 04:30:45;;;;;;;5.30;3.23;;;;;;;16.37;52.86;155566.84;4918161;29;20494;-80
2023/06/05 04:33:12;;;;;;;4.43;3.30;;;;;;;16.64;51.35;155635.84;4934338;29;20471;-80
2023/06/05 04:35:39;;;;;;;4.00;3.40;;;;;;;16.90;52.41;155703.50;4950994;29;20453;-80
2023/06/05 04:38:06;;;;;;;3.83;3.43;;;;;;;17.13;52.31;155762.06;4950444;28;20782;-81
2023/06/05 04:40:33;;;;;;;3.60;3.27;;;;;;;17.34;52.00;155816.72;4932396;29;20578;-81
2023/06/05 04:43:01;;;;;;;4.20;3.40;;;;;;;17.48;51.72;155853.16;4933870;29;20533;-81
2023/06/05 04:45:28;;;;;;;3.27;2.97;;;;;;;17.52;51.02;155863.59;4957379;28;20448;-81
2023/06/05 04:47:56;;;;;;;4.30;3.43;;;;;;;17.66;50.15;155898.78;4911367;29;20940;-81
2023/06/05 04:50:25;;;;;;;5.53;3.77;;;;;;;17.72;50.15;155915.69;4947626;28;20467;-81
2023/06/05 04:52:54;;;;;;;3.57;3.27;;;;;;;17.74;49.85;155919.63;4934321;29;20701;-81
2023/06/05 04:55:22;;;;;;;3.60;3.30;;;;;;;17.86;49.86;155950.84;4946442;28;20452;-81
2023/06/05 04:57:51;;;;;;;3.70;3.40;;;;;;;17.92;50.66;155967.78;4953171;28;20571;-79
2023/06/05 05:00:18;;;;;;;5.30;4.17;;;;;;;18.09;50.61;156010.72;4931379;28;20444;-79
2023/06/05 05:02:46;;;;;;;5.73;3.60;;;;;;;18.17;50.87;156032.88;4932387;29;21286;-78
2023/06/05 05:05:14;;;;;;;5.63;3.70;;;;;;;18.29;49.62;156061.53;4946712;28;20447;-78
2023/06/05 05:07:42;;;;;;;4.27;3.87;;;;;;;18.48;50.41;156111.09;4950926;28;20538;-78
2023/06/05 05:10:09;;;;;;;4.50;3.57;;;;;;;18.73;48.35;156176.22;4952459;28;20519;-79
2023/06/05 05:12:36;;;;;;;4.37;3.83;;;;;;;18.85;47.27;156208.78;4913919;28;20467;-79
2023/06/05 05:15:04;;;;;;;3.87;3.50;;;;;;;18.83;49.44;156202.25;4961407;28;20439;-79
2023/06/05 05:17:31;;;;;;;4.57;4.10;;;;;;;18.80;49.37;156195.75;4944847;28;20455;-80
2023/06/05 05:20:00;;;;;;;4.30;3.47;;;;;;;18.93;49.27;156228.31;4945352;28;20463;-79
2023/06/05 05:22:29;;;;;;;4.53;4.13;;;;;;;19.10;48.35;156272.63;4929105;29;20570;-78
2023/06/05 05:24:59;;;;;;;3.80;3.30;;;;;;;19.14;49.67;156283.03;4934612;28;20463;-78
2023/06/05 05:27:26;;;;;;;4.20;3.80;;;;;;;19.40;49.06;156350.91;4932758;28;20459;-79
2023/06/05 05:29:54;;;;;;;4.77;4.20;;;;;;;19.50;49.60;156374.34;4948504;28;20582;-80
2023/06/05 05:32:21;;;;;;;4.80;3.93;;;;;;;19.71;48.30;156429.09;4931125;29;20509;-78
2023/06/05 05:34:50;;;;;;;5.93;3.73;;;;;;;19.80;47.81;156453.84;4930552;28;20597;-78
2023/06/05 05:37:17;;;;;;;5.40;3.50;;;;;;;20.00;48.04;156506.03;4934390;28;20881;-79
2023/06/05 05:39:51;;;;;;;3.80;3.40;;;;;;;20.09;48.38;156528.22;4932973;29;20957;-79
2023/06/05 05:42:18;;;;;;;4.00;3.40;;;;;;;20.20;45.65;156555.59;4930887;29;20475;-79
2023/06/05 05:44:45;;;;;;;4.00;3.40;;;;;;;20.29;46.90;156579.09;4945729;28;20460;-79
2023/06/05 05:47:11;;;;;;;4.70;3.00;;;;;;;20.42;47.22;156613.00;4953479;28;20466;-79
2023/06/05 05:49:38;;;;;;;4.60;3.73;;;;;;;20.49;46.81;156632.56;4948027;28;20463;-78
2023/06/05 05:52:05;;;;;;;8.30;3.50;;;;;;;20.56;47.97;156649.53;4947764;29;20444;-79
2023/06/05 05:54:31;;;;;;;3.50;3.20;;;;;;;20.79;47.45;156708.22;4945464;28;20468;-78
2023/06/05 05:56:59;;;;;;;4.23;3.30;;;;;;;20.99;46.79;156760.44;4942552;29;20488;-79
2023/06/05 05:59:26;;;;;;;4.07;3.60;;;;;;;20.99;46.87;156760.44;4944700;28;20843;-79
2023/06/05 06:01:52;;;;;;;4.77;3.80;;;;;;;21.15;47.01;156802.25;4944983;28;20510;-79
2023/06/05 06:04:19;;;;;;;4.70;4.30;;;;;;;21.25;47.44;156828.34;4950051;28;20550;-78
2023/06/05 06:06:47;;;;;;;5.03;4.10;;;;;;;21.04;47.00;156774.81;4957816;28;21109;-79
2023/06/05 06:09:18;;;;;;;6.57;4.00;;;;;;;20.91;47.12;156740.88;4959271;28;20474;-79
2023/06/05 06:11:44;;;;;;;5.10;4.60;;;;;;;21.06;46.22;156778.69;4962567;28;20440;-79
2023/06/05 06:14:12;;;;;;;5.13;4.60;;;;;;;21.03;45.97;156770.88;4939886;28;20514;-79
2023/06/05 06:16:40;;;;;;;6.43;4.87;;;;;;;21.21;45.77;156817.91;4951700;28;20554;-78
2023/06/05 06:19:06;;;;;;;5.00;4.50;;;;;;;21.41;45.39;156870.13;4952518;28;20459;-79
2023/06/05 06:21:33;;;;;;;6.30;4.90;;;;;;;21.40;45.32;156867.50;4963017;28;20451;-81
2023/06/05 06:24:00;;;;;;;7.77;5.00;;;;;;;21.23;45.37;156823.16;4951202;28;20487;-81
2023/06/05 06:26:26;;;;;;;7.47;5.37;;;;;;;21.40;45.68;156867.50;4945446;29;20459;-81
2023/06/05 06:28:54;;;;;;;7.13;5.17;;;;;;;21.51;44.76;156896.22;4951360;28;20459;-81
2023/06/05 06:31:22;;;;;;;7.53;5.40;;;;;;;21.39;44.65;156864.91;4959962;28;20483;-80
2023/06/05 06:33:48;;;;;;;11.70;6.30;;;;;;;21.32;44.23;156846.63;4961494;28;20815;-80
2023/06/05 06:36:16;;;;;;;6.60;5.33;;;;;;;21.23;43.92;156823.16;4954620;28;20467;-81
2023/06/05 06:38:43;;;;;;;9.53;5.00;;;;;;;21.23;43.34;156823.16;4955286;28;20439;-81
2023/06/05 06:41:09;;;;;;;6.53;5.87;;;;;;;21.00;44.18;156763.03;4960119;28;20454;-81
2023/06/05 06:43:36;;;;;;;6.20;5.50;;;;;;;20.86;44.25;156726.53;4953742;29;20485;-81
2023/06/05 06:46:05;;;;;;;8.03;5.87;;;;;;;20.98;43.90;156759.13;4954254;28;20970;-81
2023/06/05 06:48:33;;;;;;;8.90;5.10;;;;;;;20.86;44.90;156727.84;4952246;28;20455;-80
2023/06/05 06:51:00;;;;;;;6.90;6.20;;;;;;;20.97;44.19;156756.50;4958616;28;20568;-81
2023/06/05 06:53:26;;;;;;;6.80;5.23;;;;;;;21.11;44.42;156793.13;4951274;28;20893;-80
2023/06/05 06:55:53;;;;;;;5.70;5.20;;;;;;;21.23;43.82;156823.16;4952104;28;20821;-80
2023/06/05 06:58:20;;;;;;;9.03;5.40;;;;;;;21.24;44.25;156827.03;4933680;28;20450;-81
2023/06/05 07:00:59;;;;;;;7.63;4.50;;;;;;;21.76;43.12;156961.47;4954070;28;20538;-81
2023/06/05 07:03:26;;;;;;;7.63;5.80;;;;;;;22.15;43.17;157060.78;4952922;28;20467;-81
2023/06/05 07:05:54;;;;;;;4.77;4.33;;;;;;;22.25;42.06;157086.91;4950994;28;20979;-82
2023/06/05 07:08:20;;;;;;;4.80;4.40;;;;;;;22.26;41.97;157089.53;4952841;28;20584;-82
2023/06/05 07:10:47;;;;;;;4.87;4.47;;;;;;;22.47;42.15;157144.38;4951606;28;20829;-82
2023/06/05 07:13:15;;;;;;;4.97;4.30;;;;;;;22.66;41.72;157192.78;4965665;28;20434;-82
2023/06/05 07:15:41;;;;;;;6.17;4.90;;;;;;;22.35;41.54;157113.00;4955795;28;20451;-82
2023/06/05 07:18:10;;;;;;;5.63;5.07;;;;;;;22.26;42.25;157089.53;4948937;28;20451;-81
2023/06/05 07:20:36;;;;;;;8.23;4.90;;;;;;;22.25;42.60;157086.91;4956516;28;20489;-81
2023/06/05 07:23:05;;;;;;;4.50;4.10;;;;;;;22.47;42.28;157144.38;4951147;29;20483;-81
2023/06/05 07:25:31;;;;;;;5.33;4.37;;;;;;;22.53;42.35;157158.75;4947939;29;20524;-72
2023/06/05 07:28:00;;;;;;;6.93;5.13;;;;;;;22.79;41.46;157226.75;4953567;28;20505;-72
2023/06/05 07:30:26;;;;;;;5.40;4.03;;;;;;;22.97;42.09;157273.75;4965915;28;20790;-72
2023/06/05 07:32:53;;;;;;;4.90;4.50;;;;;;;22.97;41.66;157273.75;4951851;29;20559;-73
2023/06/05 07:35:23;;;;;;;5.27;4.30;;;;;;;23.00;42.28;157282.94;4958877;28;20921;-73
2023/06/05 08:41:52;;;;;;;12.90;7.50;;;;;;;24.12;45.07;157571.88;5144721;27;20593;-86
2023/06/05 08:44:18;;;;;;;6.60;5.70;;;;;;;24.09;44.47;157564.06;5122496;27;20438;-79
2023/06/05 08:46:45;;;;;;;11.00;7.43;;;;;;;24.22;45.74;157599.31;5122755;27;20454;-79
2023/06/05 08:49:12;;;;;;;12.93;8.03;;;;;;;24.31;45.69;157621.56;5103600;27;20456;-79
2023/06/05 08:51:40;;;;;;;7.30;6.70;;;;;;;24.50;44.90;157669.97;5139568;27;20804;-80
2023/06/05 08:54:12;;;;;;;8.33;7.53;;;;;;;24.13;45.37;157574.50;5137730;27;20446;-79
2023/06/05 08:56:39;;;;;;;7.30;6.60;;;;;;;24.30;45.90;157619.00;5143537;27;20471;-79
2023/06/05 08:59:07;;;;;;;8.00;7.30;;;;;;;24.28;46.36;157612.44;5141054;27;20487;-79
2023/06/05 09:01:33;;;;;;;7.40;6.70;;;;;;;23.95;47.50;157528.69;5123310;27;20466;-79
2023/06/05 09:04:00;;;;;;;8.00;7.20;;;;;;;23.87;47.55;157507.78;5141271;27;20451;-79
2023/06/05 09:06:27;;;;;;;8.57;7.80;;;;;;;23.75;48.63;157476.38;5137508;27;21287;-79
2023/06/05 09:08:54;;;;;;;9.00;7.70;;;;;;;23.70;48.67;157463.31;5142642;27;20447;-79
2023/06/05 09:11:22;;;;;;;7.60;7.00;;;;;;;23.65;48.50;157450.25;5117561;27;20488;-79
2023/06/05 09:13:49;;;;;;;7.53;6.80;;;;;;;23.89;48.19;157511.69;5122770;27;20849;-79
2023/06/05 09:16:20;;;;;;;8.73;7.90;;;;;;;23.78;47.25;157484.22;5126311;27;20483;-79
2023/06/05 09:18:54;;;;;;;7.07;6.37;;;;;;;23.87;47.64;157507.78;5123679;27;20459;-79
2023/06/05 09:21:20;;;;;;;8.80;8.00;;;;;;;23.51;48.96;157414.94;5125191;27;20519;-79
2023/06/05 09:23:47;;;;;;;8.30;7.60;;;;;;;23.64;49.14;157448.91;5123626;27;20453;-79
2023/06/05 09:26:15;;;;;;;8.20;7.40;;;;;;;23.57;47.95;157429.31;5108793;27;20439;-79
2023/06/05 09:28:53;;;;;;;7.90;7.10;;;;;;;23.32;48.30;157365.25;5121619;27;20441;-79
2023/06/05 09:31:23;;;;;;;8.67;7.77;;;;;;;23.17;48.61;157326.00;5137486;27;20932;-79
2023/06/05 09:33:56;;;;;;;7.60;6.97;;;;;;;23.29;48.56;157356.09;5122199;27;20902;-79
2023/06/05 09:36:25;;;;;;;7.77;7.03;;;;;;;23.37;48.25;157377.06;5120930;27;20935;-79
2023/06/05 09:38:52;;;;;;;8.90;6.40;;;;;;;23.79;48.17;157485.53;5151096;27;20420;-79
2023/06/05 09:41:19;;;;;;;7.60;6.90;;;;;;;24.14;46.35;157578.47;5140232;27;20475;-79
2023/06/05 09:43:46;;;;;;;7.87;7.17;;;;;;;23.54;48.41;157421.47;5122744;27;20467;-79
2023/06/05 09:46:14;;;;;;;8.13;6.57;;;;;;;23.28;49.48;157353.47;5145110;27;20856;-79
2023/06/05 09:48:43;;;;;;;8.00;7.27;;;;;;;23.67;47.81;157454.19;5141391;27;20443;-80
2023/06/05 09:51:12;;;;;;;8.37;6.80;;;;;;;23.66;47.07;157451.56;5141999;27;20769;-79
2023/06/05 09:53:44;;;;;;;7.53;6.83;;;;;;;23.51;47.46;157413.69;5109591;27;20644;-79
2023/06/05 09:56:13;;;;;;;6.90;6.20;;;;;;;23.37;48.82;157377.06;5103731;27;20450;-80
2023/06/05 09:58:42;;;;;;;8.40;7.03;;;;;;;23.54;48.67;157421.47;5106512;27;20431;-79
2023/06/05 10:01:09;;;;;;;8.77;7.30;;;;;;;23.43;48.13;157394.03;5120970;27;20476;-79
2023/06/05 10:03:37;;;;;;;7.40;6.73;;;;;;;23.64;48.02;157447.66;5124139;27;20815;-79
2023/06/05 10:06:07;;;;;;;8.27;7.57;;;;;;;24.00;46.87;157541.78;5123064;27;20450;-80
2023/06/05 10:08:34;;;;;;;7.50;6.80;;;;;;;24.22;46.59;157598.06;5126211;27;20543;-80
2023/06/05 10:11:01;;;;;;;7.10;6.60;;;;;;;24.40;46.64;157643.81;5120944;27;20912;-80
2023/06/05 10:13:29;;;;;;;8.17;7.27;;;;;;;24.22;46.22;157599.31;5124569;27;20464;-80
2023/06/05 10:15:56;;;;;;;6.57;6.00;;;;;;;24.39;46.52;157641.19;5124992;27;20447;-80
2023/06/05 10:18:23;;;;;;;7.93;7.13;;;;;;;24.54;45.72;157680.47;5111960;27;21120;-80
2023/06/05 10:20:50;;;;;;;7.17;6.57;;;;;;;24.48;46.21;157666.06;5106333;28;20478;-79
2023/06/05 10:23:19;;;;;;;8.30;7.10;;;;;;;24.21;45.68;157595.44;5111722;27;20799;-79
2023/06/05 10:25:46;;;;;;;8.27;7.47;;;;;;;23.89;45.77;157513.00;5088388;27;20459;-80
2023/06/05 10:28:26;;;;;;;8.40;7.60;;;;;;;23.93;46.39;157523.47;5121197;27;21424;-80
2023/06/05 10:31:19;;;;;;;7.33;6.67;;;;;;;23.98;46.29;157536.56;5116590;27;20475;-80
2023/06/05 10:34:07;;;;;;;7.37;6.60;;;;;;;24.27;44.57;157609.81;5123612;27;20432;-79
2023/06/05 10:37:13;;;;;;;6.70;6.10;;;;;;;24.08;44.57;157562.75;5098064;27;20459;-79
2023/06/05 10:39:41;;;;;;;6.33;5.73;;;;;;;24.34;44.20;157628.13;5113424;27;20494;-79
2023/06/05 10:42:08;;;;;;;7.60;6.63;;;;;;;24.55;42.80;157683.03;5093172;27;20856;-79
2023/06/05 10:44:42;;;;;;;8.90;6.27;;;;;;;24.82;42.65;157753.75;5123376;27;20447;-80
2023/06/05 10:47:46;;;;;;;7.00;5.83;;;;;;;24.91;41.12;157776.00;5120738;27;20419;-80
2023/06/05 10:50:27;;;;;;;7.50;6.80;;;;;;;24.74;40.97;157734.09;5109570;27;20952;-80
2023/06/05 10:52:56;;;;;;;7.30;6.60;;;;;;;24.38;41.31;157638.59;5105699;27;20444;-79
2023/06/05 10:55:25;;;;;;;6.70;6.10;;;;;;;24.17;40.53;157586.25;5110339;27;20799;-79
2023/06/05 10:58:06;;;;;;;8.93;5.20;;;;;;;24.11;40.16;157569.28;5123079;27;20965;-79
2023/06/05 11:00:33;;;;;;;6.70;5.70;;;;;;;24.23;40.70;157601.97;5110209;27;20454;-80
2023/06/05 11:03:01;;;;;;;7.40;5.20;;;;;;;24.25;39.29;157605.91;5120344;27;20793;-79
2023/06/05 11:05:28;;;;;;;5.53;4.90;;;;;;;24.11;39.84;157569.28;5105856;27;20423;-79
2023/06/05 11:08:10;;;;;;;6.03;5.43;;;;;;;24.18;39.75;157588.91;5107207;27;20466;-79
2023/06/05 11:10:38;;;;;;;7.77;6.23;;;;;;;24.03;39.36;157549.63;5129624;27;20475;-79
2023/06/05 11:13:05;;;;;;;6.80;6.10;;;;;;;24.01;40.80;157544.34;5123866;27;20838;-79
2023/06/05 11:15:39;;;;;;;6.10;5.50;;;;;;;24.37;39.01;157635.97;5109985;27;20442;-79
2023/06/05 11:18:32;;;;;;;5.80;5.30;;;;;;;24.32;39.86;157624.22;5109950;27;20431;-79
2023/06/05 11:20:59;;;;;;;5.70;5.20;;;;;;;24.35;40.13;157630.75;5127180;27;20446;-79
2023/06/05 11:23:27;;;;;;;7.33;5.83;;;;;;;24.50;38.61;157671.28;5097245;27;20879;-79
2023/06/05 11:25:59;;;;;;;5.30;4.80;;;;;;;24.43;38.73;157653.00;5095636;27;20822;-80
2023/06/05 11:28:40;;;;;;;5.30;4.90;;;;;;;24.53;38.59;157677.81;5110056;27;20448;-79
2023/06/05 11:31:06;;;;;;;5.60;5.03;;;;;;;24.33;38.65;157626.78;5119339;27;20472;-79
2023/06/05 11:33:33;;;;;;;5.33;4.93;;;;;;;24.27;38.90;157611.13;5106883;27;20830;-81
2023/06/05 11:36:01;;;;;;;5.30;4.90;;;;;;;24.44;38.23;157654.25;5122932;27;20447;-81
2023/06/05 11:38:27;;;;;;;5.10;4.70;;;;;;;24.23;38.80;157601.97;5127009;27;20447;-79
2023/06/05 11:40:55;;;;;;;5.90;5.03;;;;;;;24.12;37.69;157573.19;5120763;27;21042;-81
2023/06/05 11:43:22;;;;;;;5.97;5.10;;;;;;;24.02;37.23;157547.00;5104698;27;20941;-81
2023/06/05 11:45:53;;;;;;;8.73;4.90;;;;;;;24.12;38.03;157571.88;5106447;27;20492;-81
2023/06/05 11:48:20;;;;;;;5.87;5.10;;;;;;;24.31;38.00;157621.56;5128405;27;20446;-81
2023/06/05 11:50:54;;;;;;;5.60;4.60;;;;;;;24.39;37.32;157641.19;5104447;28;20846;-81
2023/06/05 11:53:21;;;;;;;7.30;5.20;;;;;;;24.41;37.73;157647.72;5120622;27;20442;-81
2023/06/05 11:56:05;;;;;;;5.57;5.07;;;;;;;24.21;37.41;157596.75;5113910;27;20454;-80
2023/06/05 11:58:36;;;;;;;4.90;4.50;;;;;;;23.94;37.14;157526.06;5115410;27;20436;-79
2023/06/05 12:01:07;;;;;;;5.90;5.40;;;;;;;23.74;37.99;157473.78;5099806;28;20898;-79
2023/06/05 12:03:35;;;;;;;6.57;5.60;;;;;;;23.83;38.00;157497.28;5104959;28;20580;-79
2023/06/05 12:06:03;;;;;;;5.70;5.20;;;;;;;23.92;37.94;157520.84;5091528;27;20471;-80
2023/06/05 12:08:32;;;;;;;5.40;4.53;;;;;;;24.18;37.50;157588.91;5104502;27;20435;-79
2023/06/05 12:10:58;;;;;;;6.00;5.40;;;;;;;24.17;36.43;157586.25;5102658;27;20850;-80
2023/06/05 12:13:48;;;;;;;5.80;5.17;;;;;;;24.25;36.70;157604.59;5131326;27;20868;-79
2023/06/05 12:16:15;;;;;;;7.13;5.10;;;;;;;24.30;36.61;157617.66;5107887;28;20452;-80
2023/06/05 12:18:42;;;;;;;5.77;5.27;;;;;;;24.37;36.54;157637.28;5116703;27;20474;-79
2023/06/05 12:21:20;;;;;;;5.57;5.03;;;;;;;24.49;36.91;157667.38;5109543;27;20926;-79
2023/06/05 12:23:46;;;;;;;5.63;5.13;;;;;;;24.52;36.22;157676.50;5128942;27;20769;-79
2023/06/05 12:26:13;;;;;;;5.93;5.33;;;;;;;24.39;35.79;157641.19;5123869;27;20832;-79
2023/06/05 12:28:39;;;;;;;5.10;4.70;;;;;;;24.43;36.44;157651.69;5127720;27;20515;-79
2023/06/05 12:31:07;;;;;;;5.67;5.07;;;;;;;24.43;36.11;157653.00;5118204;27;20582;-79
2023/06/05 12:33:46;;;;;;;5.53;5.07;;;;;;;24.25;35.06;157604.59;5089773;28;20440;-79
2023/06/05 12:36:13;;;;;;;5.27;4.80;;;;;;;24.02;36.08;157547.00;5093357;27;20542;-79